Tiempo atmosférico en la estación meteorológica de Pozuelo De Tabara, Zamora (711 m.)



Fecha
DESCASC
Temp. máxima en grados centígrados (hora)
DESCASC
Temp. mínima en grados centígrados (hora)
DESCASC
Temp. media en grados centígrados
DESCASC
Racha de viento máxima en m/sg (hora)
DESCASC
Velocidad máxima media en intervalos de 10 minutos(hora)
DESCASC
Precipitaciones diarias en mm
DESCASC
Precipitaciones de 00:00 a 06:00 en mm
DESCASC
Precipitaciones de 06:00 a 12:00 en mm
DESCASC
Precipitaciones de 12:00 a 18:00 en mm
DESCASC
Precipitaciones de 18:00 a 24:00 en mm
DESCASC
25-04-2019 10.1 (15:50) 1.9 (03:30) 6 18.89 (17:30) 12.78 (17:20) 9 3.8 1.4 0.8 3
24-04-2019 12.5 (14:20) 0.8 (08:40) 6.7 20 (13:50) 13.06 (14:20) 15.4 1.2 7.2 5.2 1.8
23-04-2019 11 (14:10) 3.8 (23:20) 7.4 13.61 (15:50) 9.44 (14:30) 1.6 0.8 0.2 0.2 0.4
22-04-2019 18.2 (17:20) 3.7 (00:00) 11 12.5 (19:40) 7.78 (19:40) 2.6 0 0 0 2.6
21-04-2019 18.3 (16:20) 5.9 (00:00) 12.1 15.28 (13:00) 8.33 (13:20) 0 0 0 0 0
20-04-2019 21.1 (16:40) 8.1 (00:00) 14.6 15.56 (17:10) 11.39 (17:20) 0 0 0 0 0
19-04-2019 15.4 (16:20) 8 (00:00) 11.7 15.83 (18:30) 10.28 (18:10) 8 7.4 0.6 0 0
18-04-2019 14.7 (16:20) 7 (00:00) 10.8 8.89 (17:10) 6.11 (18:00) 3 1.6 0 0 1.4
17-04-2019 18.4 (16:50) 4.1 (00:00) 11.2 16.67 (19:50) 10.28 (19:50) 1.2 0 0 0 1.2
16-04-2019 19 (18:20) 0.3 (00:00) 9.7 8.61 (14:40) 4.17 (00:10) 0 0 0 0 0
15-04-2019 18.6 (11:50) 8.3 (00:00) 13.5 18.33 (15:30) 13.33 (15:30) 0 0 0 0 0
14-04-2019 19.2 (18:10) 10.4 (00:00) 14.8 10 (00:10) 7.22 (03:00) 0 0 0 0 0
13-04-2019 19.9 (17:20) 3.6 (00:00) 11.7 10.83 (22:30) 8.06 (23:00) 0 0 0 0 0
12-04-2019 16.8 (19:00) -0.3 (07:40) 8.2 5.83 (13:10) 3.33 (20:20) 0 0 0 0 0
11-04-2019 14.4 (18:40) -0.8 (-00:0) 6.8 4.72 (15:40) 3.06 (15:40) 0 0 0 0 0
10-04-2019 13.4 (16:00) 2.5 (00:00) 7.9 12.22 (01:00) 8.61 (00:50) 2.6 0 0 2.6 0
09-04-2019 10.7 (15:10) 3.2 (00:00) 6.9 13.89 (15:30) 9.44 (15:30) 6.8 0 5 0.2 1.6
08-04-2019 13.7 (17:10) 5.3 (00:00) 9.5 12.5 (17:00) 8.06 (18:40) 0.6 0.6 0 0 0
07-04-2019 9.6 (14:20) 1.7 (00:00) 5.7 13.06 (02:10) 8.61 (02:00) 4.8 0 0 1 3.8
06-04-2019 8.1 (18:40) 2.6 (00:00) 5.4 20 (18:10) 13.61 (18:10) 1.8 0.4 1.4 0 0
05-04-2019 10 (17:20) 2.3 (00:00) 6.1 12.78 (16:00) 9.17 (18:00) 1.4 1.4 0 0 0
04-04-2019 10.2 (15:10) -2.3 (-00:0) 3.9 11.94 (15:30) 8.61 (17:50) 2.2 0 0 0 2.2
03-04-2019 11.7 (15:30) 0.4 (06:40) 6 15 (15:00) 8.61 (18:20) 0 0 0 0 0
02-04-2019 18 (19:00) 3.3 (00:00) 10.6 12.5 (20:00) 8.61 (20:00) 0 0 0 0 0
01-04-2019 17.1 (16:00) 2 (00:00) 9.6 9.17 (23:50) 6.67 (23:59) 0 0 0 0 0
31-03-2019 18.7 (16:40) 2.5 (00:00) 10.6 9.72 (17:20) 6.39 (19:30) 0 0 0 0 0
30-03-2019 17.8 (16:00) 4.9 (00:00) 11.3 6.11 (16:10) 3.61 (22:30) 0 0 0 0 0
29-03-2019 18.9 (15:30) 0.4 (00:00) 9.6 9.44 (18:30) 4.72 (21:00) 0 0 0 0 0
28-03-2019 17.3 (17:10) 1.3 (00:00) 9.3 12.22 (14:30) 7.22 (11:00) 0 0 0 0 0
27-03-2019 18.7 (16:40) 1.7 (00:00) 10.2 13.33 (18:00) 9.17 (18:00) 0 0 0 0 0

Gráficas

Temp. máximas Temp. mínimas Temp. medias Precipitaciones Rachas de viento máximas Velocidades máximas media en intervalos de 10 minutos

Datos horarios

Fecha y hora oficial Temperatura (ºC) Velocidad del viento (km/h) Dirección del viento Racha (km/h) Dirección de racha Precipitación (mm) Presión (hPa) Tendencia (hPa) Humedad (%)
2019-04-25 23:00:00 6.4 28 Sudoeste 44 Oeste 0 -- -- 88
2019-04-25 22:00:00 6 21 Sudoeste 35 Oeste 0 -- -- 88
2019-04-25 21:00:00 6.4 23 Sudoeste 42 Sudoeste 0 -- -- 87
2019-04-25 20:00:00 6.4 24 Oeste 41 Oeste 0.4 -- -- 88
2019-04-25 19:00:00 5.7 29 Oeste 51 Oeste 2.6 -- -- 89
2019-04-25 18:00:00 8.3 40 Oeste 68 Oeste 0.4 -- -- 77
2019-04-25 17:00:00 10.1 40 Sudoeste 58 Oeste 0.2 -- -- 65
2019-04-25 16:00:00 9.4 41 Oeste 59 Oeste 0 -- -- 71
2019-04-25 15:00:00 8.6 40 Oeste 62 Oeste 0 -- -- 78
2019-04-25 14:00:00 6.7 36 Oeste 54 Oeste 0.2 -- -- 81
2019-04-25 13:00:00 8.6 31 Oeste 48 Oeste 0 -- -- 72
2019-04-25 12:00:00 7.2 29 Sudoeste 45 Oeste 0 -- -- 79
2019-04-25 11:00:00 6.8 34 Sudoeste 55 Sudoeste 0 -- -- 77
2019-04-25 10:00:00 6.2 37 Sudoeste 54 Sudoeste 0.2 -- -- 80
2019-04-25 09:00:00 4.7 31 Sudoeste 45 Sudoeste 0 -- -- 89
2019-04-25 08:00:00 3.1 26 Sudoeste 37 Sudoeste 0 -- -- 92
2019-04-25 07:00:00 2.7 22 Oeste 34 Oeste 1.2 -- -- 91
2019-04-25 06:00:00 3.8 14 Sudoeste 27 Sudoeste 0.4 -- -- 93
2019-04-25 05:00:00 3.1 19 Sudoeste 36 Sudoeste 0 -- -- 93
2019-04-25 04:00:00 2.5 24 Oeste 52 Noroeste 2.4 -- -- 92
2019-04-25 03:00:00 5.5 19 Sudoeste 32 Sudoeste 0 -- -- 89
2019-04-25 02:00:00 5.5 21 Sudoeste 37 Sudoeste 0 -- -- 91
2019-04-25 01:00:00 5.4 22 Oeste 37 Oeste 1 -- -- 91
2019-04-25 00:00:00 5.6 22 Oeste 44 Oeste 0.2 -- -- 88
2019-04-24 23:00:00 6.7 27 Oeste 38 Oeste 0 -- -- 88
2019-04-24 22:00:00 7.1 22 Sudoeste 37 Sudoeste 0.8 -- -- 90
2019-04-24 21:00:00 7.3 17 Sudoeste 41 Oeste 0.2 -- -- 90
2019-04-24 20:00:00 7.8 30 Oeste 44 Sudoeste 0.4 -- -- 88
2019-04-24 19:00:00 8.4 27 Oeste 54 Sudoeste 0.2 -- -- 85
2019-04-24 18:00:00 7.5 27 Oeste 53 Oeste 1.6 -- -- 88
2019-04-24 17:00:00 9.4 23 Sudoeste 50 Oeste 2.4 -- -- 90
2019-04-24 16:00:00 10.2 33 Sudoeste 57 Sudoeste 0.2 -- -- 86
2019-04-24 15:00:00 10.8 44 Sudoeste 67 Sudoeste 0.6 -- -- 85
2019-04-24 14:00:00 11.3 43 Sudoeste 72 Oeste 0.2 -- -- 82
2019-04-24 13:00:00 9.5 27 Sudoeste 45 Sudoeste 0.2 -- -- 91
2019-04-24 12:00:00 8 24 Sudoeste 37 Sudoeste 0.2 -- -- 94
2019-04-24 11:00:00 5.2 10 Sur 18 Sur 0.8 -- -- 96
2019-04-24 10:00:00 2.6 6 Sudeste 12 Sudeste 0.6 -- -- 97
2019-04-24 09:00:00 0.9 9 Sudeste 15 Sur 1.6 -- -- 94
2019-04-24 08:00:00 1.8 14 Sur 36 Sur 2.8 -- -- 92
2019-04-24 07:00:00 3.5 23 Sur 36 Sur 1.2 -- -- 91
2019-04-24 06:00:00 3.7 17 Sur 33 Sur 1 -- -- 91
2019-04-24 05:00:00 3.9 23 Sur 32 Sur 0.2 -- -- 90
2019-04-24 04:00:00 4 20 Sudoeste 36 Sudoeste 0 -- -- 89
2019-04-24 03:00:00 3.9 17 Sudoeste 30 Sudoeste 0 -- -- 89
2019-04-24 02:00:00 3.6 13 Sudoeste 25 Sudoeste 0 -- -- 90
2019-04-24 01:00:00 3.5 15 Sudoeste 25 Oeste 0 -- -- 89
2019-04-24 00:00:00 4 20 Sudoeste 26 Sudoeste 0 -- -- 89
2019-04-23 23:00:00 4.5 19 Oeste 36 Sudoeste 0 -- -- 83
2019-04-23 22:00:00 4.6 14 Sudoeste 27 Sudoeste 0 -- -- 89
2019-04-23 21:00:00 5.7 17 Sudoeste 42 Sudoeste 0.2 -- -- 81
2019-04-23 20:00:00 6.8 25 Sudoeste 38 Sudoeste 0 -- -- 79
2019-04-23 19:00:00 6.5 25 Sudoeste 45 Oeste 0.2 -- -- 80
2019-04-23 18:00:00 8.6 16 Sudoeste 29 Sudoeste 0 -- -- 71
2019-04-23 17:00:00 7.6 21 Sudoeste 37 Oeste 0 -- -- 73
2019-04-23 16:00:00 6.8 29 Oeste 49 Oeste 0 -- -- 81
2019-04-23 15:00:00 7.1 28 Sudoeste 48 Oeste 0.2 -- -- 77
2019-04-23 14:00:00 10.6 30 Sudoeste 45 Sudoeste 0 -- -- 63
2019-04-23 13:00:00 9.7 29 Sudoeste 44 Sudoeste 0 -- -- 62
2019-04-23 12:00:00 9 23 Sudoeste 36 Sudoeste 0 -- -- 66
2019-04-23 11:00:00 7.2 23 Sudoeste 38 Sudoeste 0 -- -- 71
2019-04-23 10:00:00 5.8 24 Oeste 34 Sudoeste 0 -- -- 82
2019-04-23 09:00:00 5.7 20 Sudoeste 35 Sudoeste 0 -- -- 88
2019-04-23 08:00:00 5.2 22 Sudoeste 29 Sudoeste 0.2 -- -- 89
2019-04-23 07:00:00 5.4 13 Sudoeste 27 Sudoeste 0 -- -- 90
2019-04-23 06:00:00 5.7 18 Sudoeste 27 Sudoeste 0 -- -- 89
2019-04-23 05:00:00 6.1 12 Sudoeste 28 Oeste 0.2 -- -- 90
2019-04-23 04:00:00 6.5 21 Oeste 42 Oeste 0 -- -- 87
2019-04-23 03:00:00 9.1 16 Sur 28 Sur 0.2 -- -- 90
2019-04-23 02:00:00 9.3 5 Sudoeste 9 Oeste 0 -- -- 87
2019-04-23 01:00:00 9.7 4 Sudoeste 14 Sudoeste 0.4 -- -- 88
2019-04-23 00:00:00 10.1 8 Sudoeste 21 Sudoeste 0.8 -- -- 89
2019-04-22 23:00:00 11.5 15 Oeste 24 Sudoeste 0 -- -- 75
2019-04-22 22:00:00 12 14 Oeste 28 Sudoeste 0 -- -- 75
2019-04-22 21:00:00 12.2 12 Sudoeste 33 Oeste 0 -- -- 77
2019-04-22 20:00:00 12.2 23 Sudoeste 45 Sudoeste 1.8 -- -- 73
2019-04-22 19:00:00 16.9 22 Oeste 36 Sudoeste 0 -- -- 48
2019-04-22 18:00:00 17.3 27 Oeste 36 Oeste 0 -- -- 41
2019-04-22 17:00:00 17.5 23 Sudoeste 33 Sudoeste 0 -- -- 45
2019-04-22 16:00:00 17.2 18 Oeste 32 Oeste 0 -- -- 46
2019-04-22 15:00:00 16.7 16 Sudoeste 44 Sudoeste 0 -- -- 48
2019-04-22 14:00:00 16.4 17 Sudoeste 31 Sur 0 -- -- 51
2019-04-22 13:00:00 15 13 Sudoeste 31 Sur 0 -- -- 59
2019-04-22 12:00:00 13.4 9 Sudoeste 19 Sudoeste 0 -- -- 64
2019-04-22 11:00:00 12.1 3 Este 8 Nordeste 0 -- -- 72
2019-04-22 10:00:00 9.7 3 Este 6 Este 0 -- -- 82
2019-04-22 09:00:00 6.8 4 Noroeste 10 Noroeste 0 -- -- 96
2019-04-22 08:00:00 3.7 6 Noroeste 14 Oeste 0 -- -- 95
2019-04-22 07:00:00 4.2 8 Noroeste 10 Noroeste 0 -- -- 94
2019-04-22 06:00:00 4.5 5 Oeste 13 Noroeste 0 -- -- 94
2019-04-22 05:00:00 4.8 10 Noroeste 13 Oeste 0 -- -- 93
2019-04-22 04:00:00 5.3 5 Noroeste 10 Oeste 0 -- -- 92
2019-04-22 03:00:00 6.4 0 Calma 8 Oeste 0 -- -- 89
2019-04-22 02:00:00 8.1 0 Calma 6 Este 0 -- -- 83
2019-04-22 01:00:00 9 6 Este 15 Este 0 -- -- 80
2019-04-22 00:00:00 10.5 8 Este 23 Este 0 -- -- 74
2019-04-21 23:00:00 11.8 13 Este 26 Este 0 -- -- 67
2019-04-21 22:00:00 12.5 16 Este 30 Este 0 -- -- 61
2019-04-21 21:00:00 13.3 17 Este 33 Este 0 -- -- 58
2019-04-21 20:00:00 14.5 25 Este 37 Este 0 -- -- 55
2019-04-21 19:00:00 16.1 23 Este 39 Este 0 -- -- 49
2019-04-21 18:00:00 17.6 21 Este 36 Nordeste 0 -- -- 41
2019-04-21 17:00:00 17.3 25 Nordeste 40 Este 0 -- -- 42
2019-04-21 16:00:00 17.6 23 Nordeste 38 Nordeste 0 -- -- 44
2019-04-21 15:00:00 17.1 22 Nordeste 47 Este 0 -- -- 44
2019-04-21 14:00:00 16.1 23 Este 44 Este 0 -- -- 47
2019-04-21 13:00:00 15.6 25 Este 55 Este 0 -- -- 53
2019-04-21 12:00:00 13.9 12 Nordeste 24 Este 0 -- -- 63
2019-04-21 11:00:00 12.2 11 Nordeste 19 Este 0 -- -- 69
2019-04-21 10:00:00 10.8 8 Este 13 Nordeste 0 -- -- 72
2019-04-21 09:00:00 8.5 4 Noroeste 9 Noroeste 0 -- -- 81
2019-04-21 08:00:00 6 3 Noroeste 14 Nordeste 0 -- -- 84
2019-04-21 07:00:00 7.1 8 Nordeste 14 Nordeste 0 -- -- 83
2019-04-21 06:00:00 8.7 10 Nordeste 21 Nordeste 0 -- -- 76
2019-04-21 05:00:00 9.5 12 Nordeste 22 Nordeste 0 -- -- 71
2019-04-21 04:00:00 9.6 6 Norte 13 Norte 0 -- -- 67
2019-04-21 03:00:00 9 4 Sur 14 Nordeste 0 -- -- 69
2019-04-21 02:00:00 10.3 9 Nordeste 20 Nordeste 0 -- -- 62
2019-04-21 01:00:00 10.8 9 Nordeste 20 Nordeste 0 -- -- 59
2019-04-21 00:00:00 10.9 8 Nordeste 14 Nordeste 0 -- -- 56
2019-04-20 23:00:00 12.8 9 Nordeste 30 Este 0 -- -- 48
2019-04-20 22:00:00 15 19 Nordeste 36 Nordeste 0 -- -- 42
2019-04-20 21:00:00 16.8 22 Este 47 Este 0 -- -- 41
2019-04-20 20:00:00 18.9 30 Este 46 Este 0 -- -- 37
2019-04-20 19:00:00 20.2 37 Este 55 Este 0 -- -- 34
2019-04-20 18:00:00 20.8 37 Este 56 Este 0 -- -- 33
2019-04-20 17:00:00 21.1 38 Este 55 Este 0 -- -- 32
2019-04-20 16:00:00 20.8 37 Este 54 Este 0 -- -- 34
2019-04-20 15:00:00 20.5 35 Este 54 Este 0 -- -- 33
2019-04-20 14:00:00 19.5 38 Este 53 Nordeste 0 -- -- 37
2019-04-20 13:00:00 18.2 37 Nordeste 53 Este 0 -- -- 45
2019-04-20 12:00:00 17.2 33 Este 54 Este 0 -- -- 54
2019-04-20 11:00:00 16.1 33 Este 48 Este 0 -- -- 55
2019-04-20 10:00:00 13.3 19 Nordeste 30 Nordeste 0 -- -- 65
2019-04-20 09:00:00 10.1 7 Noroeste 13 Norte 0 -- -- 77
2019-04-20 08:00:00 8.3 4 Noroeste 10 Nordeste 0 -- -- 83
2019-04-20 07:00:00 9.7 5 Nordeste 20 Nordeste 0 -- -- 77
2019-04-20 06:00:00 10.5 8 Nordeste 22 Nordeste 0 -- -- 74
2019-04-20 05:00:00 11.5 17 Nordeste 30 Nordeste 0 -- -- 74
2019-04-20 04:00:00 11.5 15 Nordeste 27 Nordeste 0 -- -- 74
2019-04-20 03:00:00 11.4 15 Nordeste 26 Nordeste 0 -- -- 77
2019-04-20 02:00:00 11.4 17 Nordeste 28 Nordeste 0 -- -- 76
2019-04-20 01:00:00 11.6 18 Nordeste 30 Nordeste 0 -- -- 76
2019-04-20 00:00:00 12.3 19 Nordeste 34 Nordeste 0 -- -- 71
2019-04-19 23:00:00 13.1 24 Nordeste 45 Nordeste 0 -- -- 68
2019-04-19 22:00:00 13.1 23 Nordeste 36 Este 0 -- -- 68
2019-04-19 21:00:00 13.3 24 Nordeste 41 Nordeste 0 -- -- 71
2019-04-19 20:00:00 13.1 17 Nordeste 32 Este 0 -- -- 74
2019-04-19 19:00:00 13.2 26 Este 57 Este 0 -- -- 68
2019-04-19 18:00:00 13.2 32 Este 52 Este 0 -- -- 74
2019-04-19 17:00:00 14.5 33 Este 47 Este 0 -- -- 69
2019-04-19 16:00:00 15 30 Este 46 Este 0 -- -- 67
2019-04-19 15:00:00 13.8 26 Este 41 Este 0 -- -- 70
2019-04-19 14:00:00 13.4 25 Este 38 Este 0 -- -- 73
2019-04-19 13:00:00 12.9 24 Este 33 Nordeste 0 -- -- 73
2019-04-19 12:00:00 12 18 Este 28 Este 0 -- -- 78
2019-04-19 11:00:00 9.9 20 Este 30 Este 0 -- -- 88
2019-04-19 10:00:00 9.1 14 Este 24 Este 0 -- -- 93
2019-04-19 09:00:00 8.8 14 Este 27 Nordeste 0 -- -- 95
2019-04-19 08:00:00 8.5 18 Este 26 Nordeste 0 -- -- 96
2019-04-19 07:00:00 8 9 Este 18 Este 0.6 -- -- 96
2019-04-19 06:00:00 8 7 Sudeste 27 Nordeste 0.8 -- -- 95
2019-04-19 05:00:00 8.3 15 Norte 27 Norte 1.2 -- -- 94
2019-04-19 04:00:00 8.5 10 Norte 24 Nordeste 2 -- -- 95
2019-04-19 03:00:00 8.7 19 Nordeste 32 Nordeste 1.8 -- -- 94
2019-04-19 02:00:00 8.9 12 Norte 22 Norte 1 -- -- 93
2019-04-19 01:00:00 9 12 Norte 17 Norte 0.6 -- -- 93
2019-04-19 00:00:00 9 8 Norte 14 Norte 0.6 -- -- 94
2019-04-18 23:00:00 9.1 7 Nordeste 15 Norte 0.6 -- -- 93
2019-04-18 22:00:00 9.4 8 Norte 14 Norte 0.2 -- -- 89
2019-04-18 21:00:00 9.8 10 Nordeste 23 Nordeste 0 -- -- 88
2019-04-18 20:00:00 10.8 17 Este 32 Nordeste 0 -- -- 79
2019-04-18 19:00:00 12.2 18 Este 29 Este 0 -- -- 71
2019-04-18 18:00:00 13 22 Este 32 Este 0 -- -- 71
2019-04-18 17:00:00 14.6 11 Este 21 Este 0 -- -- 59
2019-04-18 16:00:00 14.4 5 Nordeste 11 Sudeste 0 -- -- 58
2019-04-18 15:00:00 13.1 4 Sudeste 15 Este 0 -- -- 64
2019-04-18 14:00:00 13.1 5 Este 21 Este 0 -- -- 69
2019-04-18 13:00:00 11.7 5 Este 12 Sudeste 0 -- -- 74
2019-04-18 12:00:00 11.1 3 Sudeste 10 Este 0 -- -- 79
2019-04-18 11:00:00 9.9 3 Sudeste 11 Sur 0 -- -- 86
2019-04-18 10:00:00 8.7 3 Sudeste 10 Sudeste 0 -- -- 96
2019-04-18 09:00:00 7.6 8 Sudeste 13 Sudeste 0 -- -- 96
2019-04-18 08:00:00 7.2 3 Este 9 Sudoeste 0 -- -- 95
2019-04-18 07:00:00 7.5 6 Sudoeste 13 Sudoeste 0 -- -- 94
2019-04-18 06:00:00 7.9 6 Sudoeste 12 Sur 0 -- -- 93
2019-04-18 05:00:00 8.1 5 Sudoeste 16 Sudoeste 0.2 -- -- 92
2019-04-18 04:00:00 8.2 12 Sudoeste 22 Sudoeste 0.4 -- -- 92
2019-04-18 03:00:00 8.5 16 Sudoeste 26 Sudoeste 0.8 -- -- 91
2019-04-18 02:00:00 9 15 Sudoeste 28 Sur 0.2 -- -- 91
2019-04-18 01:00:00 9.3 20 Sur 27 Sur 0 -- -- 89
2019-04-18 00:00:00 9.4 14 Sur 22 Sudoeste 0.2 -- -- 90
2019-04-17 23:00:00 9.6 9 Sur 29 Sudoeste 0.2 -- -- 89
2019-04-17 22:00:00 10.1 21 Sudoeste 45 Sudoeste 0.8 -- -- 88
2019-04-17 21:00:00 11.1 32 Sudoeste 51 Sudoeste 0 -- -- 85
2019-04-17 20:00:00 13.2 30 Oeste 60 Sur 0 -- -- 76
2019-04-17 19:00:00 17.3 28 Sur 45 Sur 0 -- -- 44
2019-04-17 18:00:00 17.5 26 Sur 42 Sur 0 -- -- 40
2019-04-17 17:00:00 18.3 21 Sur 38 Sur 0 -- -- 41
2019-04-17 16:00:00 18.1 26 Sur 42 Sur 0 -- -- 42
2019-04-17 15:00:00 17.4 25 Sur 42 Sudeste 0 -- -- 47
2019-04-17 14:00:00 16.9 23 Sur 33 Sudoeste 0 -- -- 50
2019-04-17 13:00:00 16.5 13 Sur 22 Sur 0 -- -- 55
2019-04-17 12:00:00 14.8 7 Este 12 Nordeste 0 -- -- 60
2019-04-17 11:00:00 12.1 3 Este 7 Noroeste 0 -- -- 66
2019-04-17 10:00:00 8.9 3 Noroeste 5 Noroeste 0 -- -- 76
2019-04-17 09:00:00 5.3 0 Calma 9 Oeste 0 -- -- 92
2019-04-17 08:00:00 4.3 5 Noroeste 8 Oeste 0 -- -- 92
2019-04-17 07:00:00 4.2 4 Noroeste 5 Noroeste 0 -- -- 92
2019-04-17 06:00:00 4.6 0 Calma 5 Nordeste 0 -- -- 90
2019-04-17 05:00:00 5.8 0 Calma 5 Oeste 0 -- -- 89
2019-04-17 04:00:00 5.9 3 Noroeste 5 Oeste 0 -- -- 90
2019-04-17 03:00:00 6 0 Calma 10 Oeste 0 -- -- 86
2019-04-17 02:00:00 6.3 6 Oeste 9 Oeste 0 -- -- 86
2019-04-17 01:00:00 7.5 3 Oeste 9 Noroeste 0 -- -- 81
2019-04-17 00:00:00 8.4 5 Noroeste 9 Noroeste 0 -- -- 80
2019-04-16 23:00:00 10 3 Oeste 9 Noroeste 0 -- -- 72
2019-04-16 22:00:00 12 5 Noroeste 12 Sudoeste 0 -- -- 66
2019-04-16 21:00:00 14.3 10 Sudoeste 12 Sudoeste 0 -- -- 57
2019-04-16 20:00:00 17.6 8 Sudoeste 14 Sudoeste 0 -- -- 42
2019-04-16 19:00:00 18 12 Sudoeste 19 Sur 0 -- -- 38
2019-04-16 18:00:00 18.9 14 Sur 27 Sur 0 -- -- 32
2019-04-16 17:00:00 18.3 12 Sur 24 Sudeste 0 -- -- 40
2019-04-16 16:00:00 17 10 Sur 27 Sur 0 -- -- 41
2019-04-16 15:00:00 16.4 12 Sur 31 Sudeste 0 -- -- 42
2019-04-16 14:00:00 15 7 Sudeste 21 Este 0 -- -- 48
2019-04-16 13:00:00 13.3 11 Sudeste 20 Este 0 -- -- 57
2019-04-16 12:00:00 11.9 8 Este 15 Este 0 -- -- 65
2019-04-16 11:00:00 9.5 5 Este 10 Sudeste 0 -- -- 74
2019-04-16 10:00:00 6.8 0 Calma 4 Sudeste 0 -- -- 82
2019-04-16 09:00:00 3.3 3 Oeste 6 Oeste 0 -- -- 95
2019-04-16 08:00:00 0.4 3 Este 8 Este 0 -- -- 94
2019-04-16 07:00:00 1 0 Calma 5 Nordeste 0 -- -- 93
2019-04-16 06:00:00 1.2 3 Norte 6 Este 0 -- -- 92
2019-04-16 05:00:00 2.4 0 Calma 9 Oeste 0 -- -- 90
2019-04-16 04:00:00 3.6 9 Oeste 10 Oeste 0 -- -- 89
2019-04-16 03:00:00 4.4 2 Noroeste 17 Oeste 0 -- -- 89
2019-04-16 02:00:00 5.7 3 Noroeste 12 Oeste 0 -- -- 85
2019-04-16 01:00:00 7.1 7 Noroeste 23 Oeste 0 -- -- 81
2019-04-16 00:00:00 8.3 12 Oeste 21 Oeste 0 -- -- 78
2019-04-15 23:00:00 8.4 4 Noroeste 21 Oeste 0 -- -- 78
2019-04-15 22:00:00 9.3 10 Oeste 20 Noroeste 0 -- -- 77
2019-04-15 21:00:00 12.2 16 Oeste 35 Oeste 0 -- -- 64
2019-04-15 20:00:00 13.8 24 Oeste 43 Oeste 0 -- -- 59
2019-04-15 19:00:00 14.4 31 Oeste 44 Oeste 0 -- -- 55
2019-04-15 18:00:00 15 29 Oeste 47 Oeste 0 -- -- 57
2019-04-15 17:00:00 13.8 31 Oeste 57 Oeste 0 -- -- 60
2019-04-15 16:00:00 14.9 37 Oeste 66 Oeste 0 -- -- 60
2019-04-15 15:00:00 15.8 44 Oeste 63 Oeste 0 -- -- 61
2019-04-15 14:00:00 18.2 33 Sudoeste 57 Sudoeste 0 -- -- 53
2019-04-15 13:00:00 16.1 27 Oeste 49 Sudoeste 0 -- -- 68
2019-04-15 12:00:00 17.2 36 Sudoeste 51 Sudoeste 0 -- -- 69
2019-04-15 11:00:00 15.8 21 Sur 32 Sur 0 -- -- 78
2019-04-15 10:00:00 13.2 10 Sur 15 Sur 0 -- -- 88
2019-04-15 09:00:00 11.3 4 Este 9 Este 0 -- -- 93
2019-04-15 08:00:00 10.2 3 Nordeste 5 Nordeste 0 -- -- 94
2019-04-15 07:00:00 10.3 0 Calma 2 Este 0 -- -- 93
2019-04-15 06:00:00 10.4 0 Calma 6 Nordeste 0 -- -- 91
2019-04-15 05:00:00 11.2 0 Calma 10 Sudoeste 0 -- -- 89
2019-04-15 04:00:00 12.4 9 Sudoeste 13 Sur 0 -- -- 89
2019-04-15 03:00:00 11.3 0 Calma 3 Noroeste 0 -- -- 92
2019-04-15 02:00:00 11.5 0 Calma 5 Oeste 0 -- -- 92
2019-04-15 01:00:00 12 3 Noroeste 8 Sur 0 -- -- 88
2019-04-15 00:00:00 12.7 2 Sur 12 Sudoeste 0 -- -- 86
2019-04-14 23:00:00 12.9 12 Sudoeste 13 Sudoeste 0 -- -- 85
2019-04-14 22:00:00 12.9 6 Sudoeste 12 Sudoeste 0 -- -- 82
2019-04-14 21:00:00 16.8 8 Sudoeste 20 Sudoeste 0 -- -- 69
2019-04-14 20:00:00 18.1 8 Sudoeste 21 Sudoeste 0 -- -- 61
2019-04-14 19:00:00 19 13 Sudoeste 26 Oeste 0 -- -- 54
2019-04-14 18:00:00 18.7 16 Oeste 25 Oeste 0 -- -- 60
2019-04-14 17:00:00 18.7 15 Oeste 26 Oeste 0 -- -- 62
2019-04-14 16:00:00 18.1 15 Oeste 24 Sudoeste 0 -- -- 65
2019-04-14 15:00:00 18.4 21 Oeste 31 Oeste 0 -- -- 60
2019-04-14 14:00:00 17.8 17 Oeste 25 Oeste 0 -- -- 63
2019-04-14 13:00:00 18 13 Oeste 26 Oeste 0 -- -- 61
2019-04-14 12:00:00 17.3 17 Oeste 26 Sudoeste 0 -- -- 66
2019-04-14 11:00:00 15.3 19 Oeste 30 Sudoeste 0 -- -- 76
2019-04-14 10:00:00 13.1 22 Oeste 31 Oeste 0 -- -- 83
2019-04-14 09:00:00 11.6 9 Noroeste 21 Oeste 0 -- -- 89
2019-04-14 08:00:00 10.6 13 Oeste 27 Sudoeste 0 -- -- 91
2019-04-14 07:00:00 10.7 20 Sudoeste 30 Oeste 0 -- -- 90
2019-04-14 06:00:00 10.5 8 Oeste 25 Sudoeste 0 -- -- 90
2019-04-14 05:00:00 11.1 12 Oeste 23 Oeste 0 -- -- 89
2019-04-14 04:00:00 11.2 9 Noroeste 32 Oeste 0 -- -- 89
2019-04-14 03:00:00 12 26 Oeste 35 Oeste 0 -- -- 84
2019-04-14 02:00:00 12.1 12 Oeste 28 Oeste 0 -- -- 81
2019-04-14 01:00:00 12.9 19 Oeste 36 Oeste 0 -- -- 76
2019-04-14 00:00:00 13.4 22 Oeste 37 Oeste 0 -- -- 72
2019-04-13 23:00:00 14.6 29 Oeste 39 Oeste 0 -- -- 63
2019-04-13 22:00:00 15.5 23 Oeste 34 Oeste 0 -- -- 54
2019-04-13 21:00:00 16.5 19 Oeste 27 Oeste 0 -- -- 52
2019-04-13 20:00:00 17.4 16 Oeste 29 Oeste 0 -- -- 47
2019-04-13 19:00:00 18.6 19 Oeste 26 Oeste 0 -- -- 43
2019-04-13 18:00:00 19.5 10 Oeste 29 Oeste 0 -- -- 39
2019-04-13 17:00:00 19.7 13 Oeste 30 Sudoeste 0 -- -- 36
2019-04-13 16:00:00 19.4 14 Sudoeste 31 Oeste 0 -- -- 40
2019-04-13 15:00:00 18.5 17 Sudoeste 31 Oeste 0 -- -- 40
2019-04-13 14:00:00 17.3 11 Sudoeste 22 Sudoeste 0 -- -- 40
2019-04-13 13:00:00 15.9 9 Sudeste 15 Sudeste 0 -- -- 50
2019-04-13 12:00:00 13.4 4 Este 10 Este 0 -- -- 58
2019-04-13 11:00:00 10.6 2 Sudeste 6 Sur 0 -- -- 65
2019-04-13 10:00:00 7.8 0 Calma 3 Este 0 -- -- 73
2019-04-13 09:00:00 6.1 0 Calma 4 Oeste 0 -- -- 88
2019-04-13 08:00:00 4.9 3 Noroeste 5 Oeste 0 -- -- 91
2019-04-13 07:00:00 4.4 3 Sudoeste 5 Sur 0 -- -- 92
2019-04-13 06:00:00 3.8 2 Sudoeste 4 Este 0 -- -- 92
2019-04-13 05:00:00 4 0 Calma 6 Oeste 0 -- -- 91
2019-04-13 04:00:00 4 3 Oeste 9 Noroeste 0 -- -- 92
2019-04-13 03:00:00 4 0 Calma 4 Oeste 0 -- -- 90
2019-04-13 02:00:00 5 2 Sudeste 3 Sudeste 0 -- -- 82
2019-04-13 01:00:00 6.7 2 Nordeste 5 Este 0 -- -- 76
2019-04-13 00:00:00 8.2 3 Nordeste 6 Sudoeste 0 -- -- 66
2019-04-12 23:00:00 8.7 3 Sur 8 Sur 0 -- -- 63
2019-04-12 22:00:00 9.5 4 Sur 9 Sur 0 -- -- 63
2019-04-12 21:00:00 12.2 8 Sur 18 Sudeste 0 -- -- 58
2019-04-12 20:00:00 15.5 10 Sudeste 21 Este 0 -- -- 47
2019-04-12 19:00:00 16.8 4 Sudeste 15 Sudeste 0 -- -- 39
2019-04-12 18:00:00 16.3 4 Sudeste 15 Sudeste 0 -- -- 42
2019-04-12 17:00:00 15.8 6 Este 15 Este 0 -- -- 44
2019-04-12 16:00:00 15 4 Nordeste 15 Este 0 -- -- 47
2019-04-12 15:00:00 13.7 4 Noroeste 11 Norte 0 -- -- 54
2019-04-12 14:00:00 12.9 2 Oeste 21 Nordeste 0 -- -- 58
2019-04-12 13:00:00 10.8 5 Nordeste 15 Sudeste 0 -- -- 63
2019-04-12 12:00:00 9.6 9 Sudeste 19 Sudeste 0 -- -- 66
2019-04-12 11:00:00 8.1 8 Este 13 Este 0 -- -- 73
2019-04-12 10:00:00 6.1 2 Norte 8 Oeste 0 -- -- 87
2019-04-12 09:00:00 2.7 6 Noroeste 9 Noroeste 0 -- -- 97
2019-04-12 08:00:00 -0.2 4 Noroeste 6 Noroeste 0 -- -- 95
2019-04-12 07:00:00 0.2 4 Oeste 8 Oeste 0 -- -- 94
2019-04-12 06:00:00 0.7 3 Oeste 8 Oeste 0 -- -- 95
2019-04-12 05:00:00 0.9 4 Oeste 6 Oeste 0 -- -- 93
2019-04-12 04:00:00 1.8 3 Oeste 6 Oeste 0 -- -- 92
2019-04-12 03:00:00 2.4 2 Noroeste 6 Oeste 0 -- -- 89
2019-04-12 02:00:00 4.4 4 Oeste 16 Norte 0 -- -- 83
2019-04-12 01:00:00 4.4 7 Noroeste 10 Norte 0 -- -- 84
2019-04-12 00:00:00 5 8 Noroeste 9 Norte 0 -- -- 83
2019-04-11 23:00:00 6.1 8 Norte 12 Noroeste 0 -- -- 80
2019-04-11 22:00:00 7.1 10 Noroeste 14 Noroeste 0 -- -- 79
2019-04-11 21:00:00 11.5 3 Oeste 7 Este 0 -- -- 60
2019-04-11 20:00:00 14 3 Este 7 Nordeste 0 -- -- 43
2019-04-11 19:00:00 13.8 7 Sudoeste 12 Sudoeste 0 -- -- 43
2019-04-11 18:00:00 13.7 2 Sur 10 Sur 0 -- -- 45
2019-04-11 17:00:00 13.3 5 Sudoeste 16 Sudoeste 0 -- -- 49
2019-04-11 16:00:00 12.8 5 Noroeste 17 Sudoeste 0 -- -- 47
2019-04-11 15:00:00 13.3 5 Noroeste 15 Sudeste 0 -- -- 47
2019-04-11 14:00:00 11.7 4 Oeste 13 Norte 0 -- -- 55
2019-04-11 13:00:00 11.6 6 Oeste 11 Sudoeste 0 -- -- 56
2019-04-11 12:00:00 10.2 4 Norte 12 Este 0 -- -- 59
2019-04-11 11:00:00 8.5 3 Sudeste 8 Este 0 -- -- 68
2019-04-11 10:00:00 5.8 3 Este 5 Sudeste 0 -- -- 84
2019-04-11 09:00:00 1.8 3 Noroeste 6 Oeste 0 -- -- 96
2019-04-11 08:00:00 -0.7 3 Oeste 6 Noroeste 0 -- -- 95
2019-04-11 07:00:00 -0.3 4 Oeste 9 Noroeste 0 -- -- 94
2019-04-11 06:00:00 -0.2 5 Oeste 6 Oeste 0 -- -- 94
2019-04-11 05:00:00 0.2 5 Noroeste 8 Oeste 0 -- -- 93
2019-04-11 04:00:00 1 5 Noroeste 8 Noroeste 0 -- -- 91
2019-04-11 03:00:00 1.7 3 Oeste 11 Oeste 0 -- -- 90
2019-04-11 02:00:00 4.1 0 Calma 5 Nordeste 0 -- -- 83
2019-04-11 01:00:00 5 0 Calma 8 Sudoeste 0 -- -- 79
2019-04-11 00:00:00 4.4 6 Oeste 13 Nordeste 0 -- -- 82
2019-04-10 23:00:00 7 3 Norte 10 Nordeste 0 -- -- 71
2019-04-10 22:00:00 8.6 8 Norte 20 Nordeste 0 -- -- 65
2019-04-10 21:00:00 10.4 13 Nordeste 19 Nordeste 0 -- -- 63
2019-04-10 20:00:00 12.3 7 Nordeste 33 Nordeste 0 -- -- 58
2019-04-10 19:00:00 13.2 12 Nordeste 24 Norte 0 -- -- 57
2019-04-10 18:00:00 11.2 12 Nordeste 32 Nordeste 0 -- -- 64
2019-04-10 17:00:00 11 15 Nordeste 30 Este 2.4 -- -- 70
2019-04-10 16:00:00 13.4 20 Noroeste 40 Noroeste 0 -- -- 57
2019-04-10 15:00:00 10.4 12 Noroeste 40 Noroeste 0.2 -- -- 67
2019-04-10 14:00:00 11.4 10 Norte 29 Noroeste 0 -- -- 61
2019-04-10 13:00:00 10.9 15 Oeste 30 Oeste 0 -- -- 63
2019-04-10 12:00:00 10 24 Oeste 33 Oeste 0 -- -- 67
2019-04-10 11:00:00 8.6 24 Oeste 32 Oeste 0 -- -- 73
2019-04-10 10:00:00 6.4 14 Oeste 31 Sudoeste 0 -- -- 85
2019-04-10 09:00:00 4 18 Oeste 30 Oeste 0 -- -- 89
2019-04-10 08:00:00 2.6 4 Noroeste 14 Oeste 0 -- -- 91
2019-04-10 07:00:00 3.6 4 Noroeste 27 Oeste 0 -- -- 90
2019-04-10 06:00:00 4.3 13 Oeste 33 Oeste 0 -- -- 89
2019-04-10 05:00:00 4.7 23 Oeste 35 Oeste 0 -- -- 88
2019-04-10 04:00:00 4.4 22 Sudoeste 40 Oeste 0 -- -- 89
2019-04-10 03:00:00 5.2 28 Oeste 42 Sudoeste 0 -- -- 87
2019-04-10 02:00:00 5.2 29 Oeste 38 Oeste 0 -- -- 87
2019-04-10 01:00:00 4.9 29 Oeste 44 Oeste 0 -- -- 88
2019-04-10 00:00:00 5.2 17 Oeste 31 Oeste 0 -- -- 87
2019-04-09 23:00:00 6.3 21 Oeste 31 Oeste 0 -- -- 85
2019-04-09 22:00:00 6.7 17 Oeste 30 Oeste 0 -- -- 89
2019-04-09 21:00:00 6.4 12 Oeste 40 Noroeste 1.2 -- -- 88
2019-04-09 20:00:00 8.2 21 Oeste 39 Oeste 0.4 -- -- 81
2019-04-09 19:00:00 10.1 32 Oeste 43 Oeste 0 -- -- 66
2019-04-09 18:00:00 10.4 26 Oeste 41 Oeste 0 -- -- 67
2019-04-09 17:00:00 9.2 23 Oeste 49 Oeste 0 -- -- 75
2019-04-09 16:00:00 10 30 Oeste 50 Oeste 0.2 -- -- 73
2019-04-09 15:00:00 9.9 26 Oeste 41 Oeste 0 -- -- 67
2019-04-09 14:00:00 8.5 29 Oeste 42 Oeste 0 -- -- 72
2019-04-09 13:00:00 5.9 23 Oeste 48 Sudoeste 0 -- -- 86
2019-04-09 12:00:00 4.7 33 Oeste 47 Oeste 0 -- -- 90
2019-04-09 11:00:00 3.2 16 Sudoeste 41 Oeste 3.6 -- -- 92
2019-04-09 10:00:00 5.8 18 Sudoeste 31 Sudoeste 1 -- -- 91
2019-04-09 09:00:00 5.9 23 Sudoeste 34 Sudoeste 0 -- -- 90
2019-04-09 08:00:00 5.5 19 Sudoeste 31 Sudoeste 0.2 -- -- 92
2019-04-09 07:00:00 5.7 18 Sudoeste 28 Sudoeste 0.2 -- -- 91
2019-04-09 06:00:00 5.9 14 Sudoeste 28 Sudoeste 0 -- -- 91
2019-04-09 05:00:00 5.6 17 Sudoeste 25 Sudoeste 0 -- -- 91
2019-04-09 04:00:00 5.7 15 Sudoeste 37 Sudoeste 0 -- -- 88
2019-04-09 03:00:00 5.2 22 Sudoeste 29 Sudoeste 0 -- -- 88
2019-04-09 02:00:00 5.4 18 Sudoeste 24 Sudoeste 0 -- -- 86
2019-04-09 01:00:00 5.6 16 Oeste 21 Sudoeste 0 -- -- 86
2019-04-09 00:00:00 5.9 12 Sudoeste 17 Sudoeste 0 -- -- 87
2019-04-08 23:00:00 5.3 12 Sudoeste 17 Sudoeste 0 -- -- 87
2019-04-08 22:00:00 5.3 8 Sudoeste 13 Sudoeste 0 -- -- 83
2019-04-08 21:00:00 7.7 12 Sudoeste 26 Sudoeste 0 -- -- 72
2019-04-08 20:00:00 8.7 22 Sudoeste 32 Noroeste 0 -- -- 67
2019-04-08 19:00:00 10.2 26 Oeste 38 Oeste 0 -- -- 71
2019-04-08 18:00:00 13.1 24 Sudoeste 37 Sudoeste 0 -- -- 48
2019-04-08 17:00:00 13.5 24 Sudoeste 45 Sudoeste 0 -- -- 44
2019-04-08 16:00:00 11.8 26 Oeste 39 Sudoeste 0 -- -- 53
2019-04-08 15:00:00 12.6 22 Sudoeste 36 Sudoeste 0 -- -- 58
2019-04-08 14:00:00 10.3 26 Oeste 38 Oeste 0 -- -- 59
2019-04-08 13:00:00 10 18 Oeste 28 Oeste 0 -- -- 64
2019-04-08 12:00:00 8.9 19 Oeste 30 Oeste 0 -- -- 66
2019-04-08 11:00:00 8.8 21 Oeste 36 Oeste 0 -- -- 72
2019-04-08 10:00:00 8.2 21 Oeste 35 Oeste 0 -- -- 85
2019-04-08 09:00:00 6.7 15 Sudoeste 25 Sudoeste 0 -- -- 92
2019-04-08 08:00:00 6.4 14 Oeste 26 Oeste 0 -- -- 89
2019-04-08 07:00:00 7.2 12 Oeste 31 Sudoeste 0 -- -- 90
2019-04-08 06:00:00 7.6 20 Oeste 32 Oeste 0 -- -- 90
2019-04-08 05:00:00 8.3 21 Sudoeste 29 Sudoeste 0 -- -- 92
2019-04-08 04:00:00 8.2 15 Sudoeste 32 Sudoeste 0.6 -- -- 93
2019-04-08 03:00:00 8.6 20 Sudoeste 36 Sudoeste 0 -- -- 90
2019-04-08 02:00:00 8.9 18 Sudoeste 32 Sudoeste 0 -- -- 91
2019-04-08 01:00:00 8.9 21 Sudoeste 32 Oeste 0 -- -- 91
2019-04-08 00:00:00 8.7 14 Sudoeste 25 Sudoeste 0 -- -- 95
2019-04-07 23:00:00 7.4 8 Sur 17 Sudeste 0.8 -- -- 96
2019-04-07 22:00:00 6.9 10 Sudeste 18 Sudeste 1.2 -- -- 96
2019-04-07 21:00:00 6.6 10 Sudeste 15 Sudeste 0.4 -- -- 94
2019-04-07 20:00:00 6.4 7 Sudeste 14 Sudeste 0.6 -- -- 91
2019-04-07 19:00:00 6.7 9 Sur 17 Sudoeste 0.8 -- -- 87
2019-04-07 18:00:00 6.6 15 Sudoeste 28 Sudoeste 0.6 -- -- 86
2019-04-07 17:00:00 6.8 21 Sudoeste 41 Sudoeste 0.4 -- -- 84
2019-04-07 16:00:00 9.2 26 Sudoeste 38 Sudoeste 0 -- -- 64
2019-04-07 15:00:00 9.3 17 Sudoeste 31 Sudoeste 0 -- -- 62
2019-04-07 14:00:00 9.3 22 Sudoeste 32 Sudoeste 0 -- -- 62
2019-04-07 13:00:00 9 21 Sudoeste 31 Sudoeste 0 -- -- 61
2019-04-07 12:00:00 8.1 16 Oeste 26 Oeste 0 -- -- 64
2019-04-07 11:00:00 6.6 9 Oeste 30 Sudoeste 0 -- -- 71
2019-04-07 10:00:00 5 19 Oeste 29 Oeste 0 -- -- 80
2019-04-07 09:00:00 3.4 15 Oeste 29 Oeste 0 -- -- 86
2019-04-07 08:00:00 2.2 18 Oeste 26 Oeste 0 -- -- 88
2019-04-07 07:00:00 2.2 14 Oeste 29 Oeste 0 -- -- 90
2019-04-07 06:00:00 1.9 17 Oeste 38 Oeste 0 -- -- 90
2019-04-07 05:00:00 2.2 18 Oeste 31 Oeste 0 -- -- 88
2019-04-07 04:00:00 2.7 25 Oeste 35 Oeste 0 -- -- 90
2019-04-07 03:00:00 2.8 21 Oeste 47 Oeste 0 -- -- 86
2019-04-07 02:00:00 3.2 31 Oeste 45 Oeste 0 -- -- 82
2019-04-07 01:00:00 3.6 22 Oeste 36 Oeste 0 -- -- 84
2019-04-07 00:00:00 4 13 Oeste 27 Sudoeste 0 -- -- 83
2019-04-06 23:00:00 3.7 20 Oeste 29 Sudoeste 0 -- -- 82
2019-04-06 22:00:00 3.8 14 Oeste 33 Oeste 0 -- -- 79
2019-04-06 21:00:00 5.6 27 Oeste 49 Oeste 0 -- -- 72
2019-04-06 20:00:00 7.2 32 Oeste 51 Oeste 0 -- -- 68
2019-04-06 19:00:00 8.1 36 Oeste 72 Oeste 0 -- -- 62
2019-04-06 18:00:00 7.9 48 Oeste 72 Oeste 0 -- -- 63
2019-04-06 17:00:00 7.4 48 Oeste 66 Oeste 0 -- -- 74
2019-04-06 16:00:00 6.4 37 Oeste 51 Oeste 0 -- -- 77
2019-04-06 15:00:00 7 30 Sudoeste 47 Sudoeste 0 -- -- 80
2019-04-06 14:00:00 6.7 30 Sudoeste 49 Sudoeste 0 -- -- 80
2019-04-06 13:00:00 5.4 31 Sudoeste 52 Sudoeste 0 -- -- 87
2019-04-06 12:00:00 4.1 35 Sudoeste 62 Sudoeste 0.8 -- -- 89
2019-04-06 11:00:00 3.4 39 Sudoeste 56 Sudoeste 0 -- -- 88
2019-04-06 10:00:00 3.7 31 Sudoeste 49 Sudoeste 0 -- -- 88
2019-04-06 09:00:00 3.3 27 Sudoeste 37 Sudoeste 0 -- -- 89
2019-04-06 08:00:00 2.7 24 Sudoeste 41 Sudoeste 0.2 -- -- 91
2019-04-06 07:00:00 2.6 23 Sudoeste 36 Sudoeste 0.4 -- -- 91
2019-04-06 06:00:00 3.1 15 Sudoeste 32 Sudoeste 0.4 -- -- 92
2019-04-06 05:00:00 3.1 23 Sudoeste 35 Sudoeste 0 -- -- 90
2019-04-06 04:00:00 3.1 23 Sudoeste 35 Sudoeste 0 -- -- 89
2019-04-06 03:00:00 3.1 18 Sudoeste 35 Sudoeste 0 -- -- 89
2019-04-06 02:00:00 3.1 22 Sudoeste 35 Oeste 0 -- -- 90
2019-04-06 01:00:00 2.9 26 Sudoeste 39 Oeste 0 -- -- 90
2019-04-06 00:00:00 3 25 Oeste 36 Oeste 0 -- -- 91
2019-04-05 23:00:00 2.8 23 Sudoeste 35 Sudoeste 0 -- -- 91
2019-04-05 22:00:00 2.9 7 Sudoeste 21 Sudoeste 0 -- -- 88
2019-04-05 21:00:00 4.2 14 Sudoeste 41 Oeste 0 -- -- 83
2019-04-05 20:00:00 7.2 12 Oeste 36 Oeste 0 -- -- 61
2019-04-05 19:00:00 7.9 27 Oeste 43 Oeste 0 -- -- 58
2019-04-05 18:00:00 9.1 33 Oeste 46 Oeste 0 -- -- 57
2019-04-05 17:00:00 9.5 25 Oeste 41 Oeste 0 -- -- 47
2019-04-05 16:00:00 8.5 30 Oeste 46 Oeste 0 -- -- 64
2019-04-05 15:00:00 8.3 22 Oeste 36 Oeste 0 -- -- 56
2019-04-05 14:00:00 6.4 18 Noroeste 34 Oeste 0 -- -- 75
2019-04-05 13:00:00 6.5 22 Oeste 33 Oeste 0 -- -- 64
2019-04-05 12:00:00 5.2 26 Oeste 37 Oeste 0 -- -- 74
2019-04-05 11:00:00 4.9 22 Oeste 31 Oeste 0 -- -- 75
2019-04-05 10:00:00 3.6 17 Oeste 26 Oeste 0 -- -- 85
2019-04-05 09:00:00 2.9 12 Oeste 27 Sudoeste 0 -- -- 89
2019-04-05 08:00:00 2.6 19 Sudoeste 31 Sudoeste 0 -- -- 89
2019-04-05 07:00:00 2.8 9 Sudoeste 42 Oeste 0 -- -- 89
2019-04-05 06:00:00 3.9 19 Sudoeste 33 Oeste 0 -- -- 88
2019-04-05 05:00:00 4.8 19 Oeste 36 Sudoeste 0 -- -- 91
2019-04-05 04:00:00 4.7 24 Sudoeste 40 Sudoeste 0 -- -- 92
2019-04-05 03:00:00 4.4 23 Sudoeste 33 Sudoeste 0 -- -- 91
2019-04-05 02:00:00 4.3 24 Sur 34 Sur 0.8 -- -- 91
2019-04-05 01:00:00 4.4 24 Sur 36 Sur 0.6 -- -- 90
2019-04-05 00:00:00 4.1 13 Sur 31 Sudoeste 0 -- -- 91
2019-04-04 23:00:00 4 16 Sudoeste 30 Sudoeste 0.4 -- -- 89
2019-04-04 22:00:00 4 15 Sudoeste 29 Sudoeste 0.4 -- -- 91
2019-04-04 21:00:00 4.1 21 Sudoeste 36 Sudoeste 0.6 -- -- 89
2019-04-04 20:00:00 4.7 22 Sudoeste 35 Sudoeste 0.4 -- -- 86
2019-04-04 19:00:00 5.3 20 Sudoeste 35 Sudoeste 0.4 -- -- 83
2019-04-04 18:00:00 6.1 24 Oeste 43 Oeste 0 -- -- 71
2019-04-04 17:00:00 9 25 Oeste 42 Oeste 0 -- -- 49
2019-04-04 16:00:00 9.4 28 Oeste 43 Oeste 0 -- -- 47
2019-04-04 15:00:00 10.1 21 Sudoeste 40 Sudoeste 0 -- -- 43
2019-04-04 14:00:00 8.9 21 Oeste 34 Oeste 0 -- -- 45
2019-04-04 13:00:00 7.9 20 Oeste 35 Oeste 0 -- -- 51
2019-04-04 12:00:00 7.9 18 Oeste 31 Oeste 0 -- -- 51
2019-04-04 11:00:00 6 15 Oeste 31 Oeste 0 -- -- 58
2019-04-04 10:00:00 4 18 Oeste 32 Oeste 0 -- -- 67
2019-04-04 09:00:00 2.1 18 Oeste 24 Oeste 0 -- -- 72
2019-04-04 08:00:00 -2.2 3 Noroeste 10 Oeste 0 -- -- 78
2019-04-04 07:00:00 -0.8 5 Noroeste 18 Oeste 0 -- -- 73
2019-04-04 06:00:00 -1.5 10 Noroeste 14 Oeste 0 -- -- 75
2019-04-04 05:00:00 -0.5 10 Noroeste 17 Oeste 0 -- -- 69
2019-04-04 04:00:00 0.8 10 Noroeste 25 Oeste 0 -- -- 64
2019-04-04 03:00:00 -0.4 7 Oeste 21 Oeste 0 -- -- 70
2019-04-04 02:00:00 1.7 13 Noroeste 22 Noroeste 0 -- -- 62
2019-04-04 01:00:00 2.5 13 Noroeste 22 Noroeste 0 -- -- 57
2019-04-04 00:00:00 3.3 18 Noroeste 25 Noroeste 0 -- -- 58
2019-04-03 23:00:00 3.9 15 Noroeste 22 Noroeste 0 -- -- 57
2019-04-03 22:00:00 4.8 10 Oeste 20 Oeste 0 -- -- 57
2019-04-03 21:00:00 5.9 12 Noroeste 34 Norte 0 -- -- 47
2019-04-03 20:00:00 8.5 24 Noroeste 42 Noroeste 0 -- -- 41
2019-04-03 19:00:00 10.1 28 Noroeste 44 Norte 0 -- -- 35
2019-04-03 18:00:00 11.5 26 Noroeste 38 Noroeste 0 -- -- 35
2019-04-03 17:00:00 11.1 22 Noroeste 41 Noroeste 0 -- -- 34
2019-04-03 16:00:00 11.3 27 Noroeste 40 Norte 0 -- -- 37
2019-04-03 15:00:00 11.1 25 Noroeste 54 Noroeste 0 -- -- 34
2019-04-03 14:00:00 10.6 27 Noroeste 43 Norte 0 -- -- 33
2019-04-03 13:00:00 10 24 Noroeste 37 Noroeste 0 -- -- 39
2019-04-03 12:00:00 8.7 13 Noroeste 23 Noroeste 0 -- -- 45
2019-04-03 11:00:00 6.8 19 Noroeste 31 Noroeste 0 -- -- 54
2019-04-03 10:00:00 5.9 6 Noroeste 13 Norte 0 -- -- 64
2019-04-03 09:00:00 3.5 0 Calma 2 Noroeste 0 -- -- 91
2019-04-03 08:00:00 2.8 0 Calma 7 Norte 0 -- -- 91
2019-04-03 07:00:00 1.2 5 Oeste 10 Oeste 0 -- -- 92
2019-04-03 06:00:00 1 5 Sudoeste 9 Sudoeste 0 -- -- 88
2019-04-03 05:00:00 1.9 3 Oeste 8 Norte 0 -- -- 87
2019-04-03 04:00:00 2.7 3 Oeste 9 Sudoeste 0 -- -- 86
2019-04-03 03:00:00 2.5 0 Calma 5 Sudoeste 0 -- -- 84
2019-04-03 02:00:00 3.9 4 Oeste 8 Sudeste 0 -- -- 78
2019-04-03 01:00:00 5 2 Sudeste 10 Sudeste 0 -- -- 73
2019-04-03 00:00:00 6 0 Calma 8 Sur 0 -- -- 68
2019-04-02 23:00:00 7.3 2 Oeste 6 Noroeste 0 -- -- 64
2019-04-02 22:00:00 10.1 7 Noroeste 22 Noroeste 0 -- -- 53
2019-04-02 21:00:00 13.1 19 Noroeste 36 Oeste 0 -- -- 41
2019-04-02 20:00:00 16.3 31 Oeste 45 Oeste 0 -- -- 31
2019-04-02 19:00:00 18 25 Oeste 32 Oeste 0 -- -- 29
2019-04-02 18:00:00 16.8 18 Oeste 30 Oeste 0 -- -- 41
2019-04-02 17:00:00 17 7 Nordeste 16 Sudeste 0 -- -- 37
2019-04-02 16:00:00 16.3 3 Norte 15 Noroeste 0 -- -- 43
2019-04-02 15:00:00 16.3 6 Norte 18 Norte 0 -- -- 44
2019-04-02 14:00:00 15.6 8 Norte 23 Noroeste 0 -- -- 53
2019-04-02 13:00:00 14.3 7 Nordeste 23 Este 0 -- -- 56
2019-04-02 12:00:00 12.6 10 Nordeste 18 Nordeste 0 -- -- 61
2019-04-02 11:00:00 10.9 9 Nordeste 18 Nordeste 0 -- -- 63
2019-04-02 10:00:00 8.2 9 Norte 14 Norte 0 -- -- 73
2019-04-02 09:00:00 5.3 10 Noroeste 13 Noroeste 0 -- -- 86
2019-04-02 08:00:00 3.4 11 Oeste 13 Noroeste 0 -- -- 89
2019-04-02 07:00:00 3.8 10 Noroeste 13 Noroeste 0 -- -- 89
2019-04-02 06:00:00 4.6 11 Noroeste 13 Oeste 0 -- -- 87
2019-04-02 05:00:00 5.8 9 Noroeste 13 Noroeste 0 -- -- 82
2019-04-02 04:00:00 5.7 11 Oeste 14 Oeste 0 -- -- 80
2019-04-02 03:00:00 7.3 10 Oeste 17 Noroeste 0 -- -- 75
2019-04-02 02:00:00 8.9 9 Noroeste 30 Oeste 0 -- -- 72
2019-04-02 01:00:00 10.4 19 Oeste 34 Oeste 0 -- -- 69
2019-04-02 00:00:00 10.5 24 Oeste 33 Oeste 0 -- -- 67
2019-04-01 23:00:00 11.2 18 Oeste 29 Oeste 0 -- -- 63
2019-04-01 22:00:00 12.5 14 Noroeste 23 Oeste 0 -- -- 57
2019-04-01 21:00:00 13.1 14 Oeste 26 Oeste 0 -- -- 54
2019-04-01 20:00:00 14 21 Oeste 28 Oeste 0 -- -- 50
2019-04-01 19:00:00 15.5 11 Oeste 28 Noroeste 0 -- -- 49
2019-04-01 18:00:00 15.8 16 Noroeste 24 Noroeste 0 -- -- 49
2019-04-01 17:00:00 15.8 2 Norte 15 Sudeste 0 -- -- 41
2019-04-01 16:00:00 17.1 4 Sudoeste 20 Sudeste 0 -- -- 42
2019-04-01 15:00:00 16 8 Sudeste 22 Sudeste 0 -- -- 48
2019-04-01 14:00:00 14.4 7 Este 15 Este 0 -- -- 50
2019-04-01 13:00:00 12.7 6 Sudeste 13 Sudeste 0 -- -- 57
2019-04-01 12:00:00 11 5 Nordeste 13 Nordeste 0 -- -- 66
2019-04-01 11:00:00 9.1 6 Nordeste 13 Nordeste 0 -- -- 71
2019-04-01 10:00:00 7 6 Norte 11 Nordeste 0 -- -- 81
2019-04-01 09:00:00 3.6 7 Noroeste 11 Oeste 0 -- -- 92
2019-04-01 08:00:00 2.1 10 Oeste 10 Oeste 0 -- -- 93
2019-04-01 07:00:00 2.7 8 Noroeste 12 Oeste 0 -- -- 91
2019-04-01 06:00:00 3.1 10 Oeste 11 Oeste 0 -- -- 90
2019-04-01 05:00:00 3.7 5 Noroeste 9 Noroeste 0 -- -- 87
2019-04-01 04:00:00 4.1 3 Noroeste 5 Noroeste 0 -- -- 88
2019-04-01 03:00:00 5.4 2 Noroeste 5 Noroeste 0 -- -- 82
2019-04-01 02:00:00 6.4 4 Noroeste 9 Nordeste 0 -- -- 82
2019-04-01 01:00:00 8.2 3 Este 8 Este 0 -- -- 75
2019-04-01 00:00:00 9.7 2 Nordeste 18 Sur 0 -- -- 64
2019-03-31 23:00:00 12.1 15 Sudeste 22 Sudeste 0 -- -- 55
2019-03-31 22:00:00 10.9 5 Sudeste 13 Sudeste 0 -- -- 53
2019-03-31 21:00:00 13.4 7 Este 23 Este 0 -- -- 42
2019-03-31 20:00:00 15.6 19 Este 33 Este 0 -- -- 37
2019-03-31 19:00:00 17.5 19 Este 31 Este 0 -- -- 32
2019-03-31 18:00:00 17.9 18 Este 35 Este 0 -- -- 30
2019-03-31 17:00:00 17.4 15 Nordeste 28 Este 0 -- -- 34
2019-03-31 16:00:00 17.8 10 Este 28 Este 0 -- -- 30
2019-03-31 15:00:00 17.7 15 Este 24 Este 0 -- -- 37
2019-03-31 14:00:00 16 11 Este 23 Este 0 -- -- 39
2019-03-31 13:00:00 14.5 11 Nordeste 21 Nordeste 0 -- -- 46
2019-03-31 12:00:00 12.1 11 Nordeste 18 Nordeste 0 -- -- 48
2019-03-31 11:00:00 8.5 9 Nordeste 18 Nordeste 0 -- -- 58
2019-03-31 10:00:00 8.7 11 Nordeste 18 Norte 0 -- -- 58
2019-03-31 09:00:00 3.4 10 Noroeste 13 Noroeste 0 -- -- 83
2019-03-31 08:00:00 3 10 Noroeste 13 Noroeste 0 -- -- 83
2019-03-31 07:00:00 4 12 Noroeste 15 Noroeste 0 -- -- 79
2019-03-31 06:00:00 4.1 6 Noroeste 16 Noroeste 0 -- -- 80
2019-03-31 05:00:00 4 10 Noroeste 14 Noroeste 0 -- -- 82
2019-03-31 03:00:00 5.6 6 Noroeste 15 Oeste 0 -- -- 75
2019-03-31 01:00:00 6.9 11 Noroeste 15 Noroeste 0 -- -- 70
2019-03-31 00:00:00 8.6 10 Oeste 13 Oeste 0 -- -- 63
2019-03-30 23:00:00 9.2 10 Oeste 15 Oeste 0 -- -- 63
2019-03-30 22:00:00 8.8 10 Oeste 12 Oeste 0 -- -- 64
2019-03-30 21:00:00 10.8 9 Noroeste 12 Noroeste 0 -- -- 60
2019-03-30 20:00:00 12.8 4 Oeste 6 Noroeste 0 -- -- 55
2019-03-30 19:00:00 15.3 0 Calma 8 Este 0 -- -- 40
2019-03-30 18:00:00 16.7 5 Este 11 Nordeste 0 -- -- 33
2019-03-30 17:00:00 16.9 8 Este 22 Nordeste 0 -- -- 30
2019-03-30 16:00:00 17.8 9 Este 21 Este 0 -- -- 33
2019-03-30 15:00:00 16.7 6 Este 19 Este 0 -- -- 38
2019-03-30 14:00:00 16.9 0 Calma 13 Este 0 -- -- 37
2019-03-30 13:00:00 15.7 5 Sur 10 Nordeste 0 -- -- 41
2019-03-30 12:00:00 14.3 6 Nordeste 15 Nordeste 0 -- -- 44
2019-03-30 11:00:00 12.5 3 Nordeste 12 Este 0 -- -- 49
2019-03-30 10:00:00 9.8 5 Norte 11 Oeste 0 -- -- 55
2019-03-30 09:00:00 6.9 0 Calma 3 Norte 0 -- -- 67
2019-03-30 08:00:00 5.2 3 Noroeste 6 Noroeste 0 -- -- 73
2019-03-30 07:00:00 5.4 0 Calma 4 Sudeste 0 -- -- 70
2019-03-30 06:00:00 5.9 3 Noroeste 8 Noroeste 0 -- -- 70
2019-03-30 05:00:00 7.6 4 Nordeste 8 Sudeste 0 -- -- 58
2019-03-30 04:00:00 8.2 4 Sudeste 8 Sudeste 0 -- -- 53
2019-03-30 03:00:00 8.9 2 Noroeste 11 Oeste 0 -- -- 51
2019-03-30 02:00:00 9.6 8 Oeste 17 Sudoeste 0 -- -- 49
2019-03-30 01:00:00 7.9 3 Noroeste 9 Este 0 -- -- 60
2019-03-30 00:00:00 9.6 0 Calma 18 Sudeste 0 -- -- 47
2019-03-29 23:00:00 8 2 Norte 8 Sur 0 -- -- 56
2019-03-29 22:00:00 10.8 12 Oeste 18 Sudoeste 0 -- -- 44
2019-03-29 21:00:00 11.5 17 Sudoeste 19 Sudoeste 0 -- -- 42
2019-03-29 20:00:00 12.1 14 Sudoeste 19 Sudoeste 0 -- -- 43
2019-03-29 19:00:00 17 8 Sudoeste 34 Sur 0 -- -- 33
2019-03-29 18:00:00 18 12 Sur 18 Sudeste 0 -- -- 33
2019-03-29 17:00:00 17.5 6 Sudoeste 23 Sudoeste 0 -- -- 32
2019-03-29 16:00:00 17.9 10 Sur 26 Sur 0 -- -- 34
2019-03-29 15:00:00 18.4 7 Sudeste 19 Sudeste 0 -- -- 36
2019-03-29 14:00:00 16.7 10 Este 18 Sudeste 0 -- -- 40
2019-03-29 13:00:00 15.2 5 Sudeste 12 Sudeste 0 -- -- 43
2019-03-29 12:00:00 13.1 4 Este 13 Este 0 -- -- 48
2019-03-29 11:00:00 11 4 Nordeste 12 Norte 0 -- -- 51
2019-03-29 10:00:00 8.9 9 Nordeste 14 Nordeste 0 -- -- 54
2019-03-29 09:00:00 6.5 7 Norte 10 Norte 0 -- -- 64
2019-03-29 08:00:00 1.9 9 Noroeste 13 Noroeste 0 -- -- 81
2019-03-29 07:00:00 0.7 10 Noroeste 12 Noroeste 0 -- -- 84
2019-03-29 06:00:00 0.7 9 Oeste 10 Oeste 0 -- -- 83
2019-03-29 05:00:00 1.4 6 Noroeste 12 Noroeste 0 -- -- 82
2019-03-29 04:00:00 1.8 8 Noroeste 10 Noroeste 0 -- -- 81
2019-03-29 03:00:00 3 6 Noroeste 10 Norte 0 -- -- 77
2019-03-29 02:00:00 5.3 6 Norte 12 Norte 0 -- -- 69
2019-03-29 01:00:00 5.6 5 Norte 8 Nordeste 0 -- -- 68
2019-03-29 00:00:00 7.1 4 Noroeste 11 Norte 0 -- -- 64
2019-03-28 23:00:00 9 2 Este 18 Este 0 -- -- 59
2019-03-28 22:00:00 11.4 17 Este 27 Nordeste 0 -- -- 49
2019-03-28 21:00:00 9.8 0 Calma 6 Sudeste 0 -- -- 52
2019-03-28 20:00:00 12.7 5 Este 21 Este 0 -- -- 43
2019-03-28 19:00:00 16.1 15 Este 28 Este 0 -- -- 33
2019-03-28 18:00:00 17.2 19 Este 32 Nordeste 0 -- -- 29
2019-03-28 17:00:00 17.2 18 Este 29 Este 0 -- -- 32
2019-03-28 16:00:00 16.9 18 Este 39 Sudeste 0 -- -- 33
2019-03-28 15:00:00 16.1 14 Este 44 Este 0 -- -- 36
2019-03-28 14:00:00 15.2 19 Nordeste 32 Este 0 -- -- 36
2019-03-28 13:00:00 14 20 Este 34 Nordeste 0 -- -- 40
2019-03-28 12:00:00 12.6 22 Nordeste 37 Nordeste 0 -- -- 43
2019-03-28 11:00:00 10.5 26 Este 38 Este 0 -- -- 51
2019-03-28 10:00:00 8 17 Nordeste 29 Nordeste 0 -- -- 58
2019-03-28 09:00:00 6 17 Nordeste 28 Nordeste 0 -- -- 65
2019-03-28 08:00:00 1.7 3 Noroeste 8 Sudeste 0 -- -- 76
2019-03-28 07:00:00 1.5 4 Sudoeste 18 Este 0 -- -- 72
2019-03-28 06:00:00 3.9 9 Nordeste 24 Nordeste 0 -- -- 59
2019-03-28 05:00:00 4.5 17 Nordeste 24 Nordeste 0 -- -- 46
2019-03-28 04:00:00 3.7 6 Nordeste 12 Nordeste 0 -- -- 43
2019-03-28 03:00:00 4.9 4 Nordeste 9 Norte 0 -- -- 39
2019-03-28 02:00:00 5.3 6 Nordeste 18 Nordeste 0 -- -- 45
2019-03-28 01:00:00 7 15 Este 33 Nordeste 0 -- -- 38
2019-03-28 00:00:00 7.7 15 Este 33 Nordeste 0 -- -- 39
2019-03-27 23:00:00 7.9 12 Este 20 Nordeste 0 -- -- 41
2019-03-27 22:00:00 9.8 7 Nordeste 25 Este 0 -- -- 36
2019-03-27 21:00:00 11.7 20 Este 33 Este 0 -- -- 36
2019-03-27 20:00:00 13.3 19 Nordeste 31 Este 0 -- -- 33
2019-03-27 19:00:00 16.2 24 Este 45 Este 0 -- -- 23
2019-03-27 18:00:00 17.6 33 Este 48 Nordeste 0 -- -- 19
2019-03-27 17:00:00 18.4 29 Este 45 Este 0 -- -- 20
2019-03-27 16:00:00 18.4 28 Este 42 Este 0 -- -- 23
2019-03-27 15:00:00 18.2 28 Nordeste 47 Este 0 -- -- 24
2019-03-27 14:00:00 16.9 24 Este 40 Este 0 -- -- 22
2019-03-27 13:00:00 15.2 24 Este 38 Nordeste 0 -- -- 28
2019-03-27 12:00:00 13 17 Este 34 Este 0 -- -- 35
2019-03-27 11:00:00 10.9 19 Este 34 Este 0 -- -- 41
2019-03-27 10:00:00 8.5 17 Este 30 Este 0 -- -- 46
2019-03-27 09:00:00 6.2 10 Nordeste 22 Nordeste 0 -- -- 56
2019-03-27 08:00:00 2.8 4 Norte 8 Nordeste 0 -- -- 67
2019-03-27 07:00:00 2.6 3 Norte 19 Nordeste 0 -- -- 66
2019-03-27 06:00:00 2.8 10 Nordeste 16 Nordeste 0 -- -- 67
2019-03-27 05:00:00 2.4 8 Norte 14 Nordeste 0 -- -- 65
2019-03-27 04:00:00 2.9 10 Norte 19 Nordeste 0 -- -- 58
2019-03-27 03:00:00 3.4 4 Norte 15 Norte 0 -- -- 52
2019-03-27 02:00:00 2.9 4 Norte 10 Norte 0 -- -- 50
2019-03-27 01:00:00 4.5 5 Norte 17 Nordeste 0 -- -- 44
2019-03-27 00:00:00 5.7 3 Nordeste 27 Nordeste 0 -- -- 39